sensor_id;sensor_type;location;lat;lon;timestamp;temperature;humidity
10083;DHT22;5080;48.528;8.078;2023-05-07T00:00:07;15.80;99.90
10083;DHT22;5080;48.528;8.078;2023-05-07T00:02:35;15.80;99.90
10083;DHT22;5080;48.528;8.078;2023-05-07T00:05:03;15.80;99.90
10083;DHT22;5080;48.528;8.078;2023-05-07T00:07:30;15.80;99.90
10083;DHT22;5080;48.528;8.078;2023-05-07T00:09:57;15.70;99.90
10083;DHT22;5080;48.528;8.078;2023-05-07T00:12:23;15.80;99.90
10083;DHT22;5080;48.528;8.078;2023-05-07T00:14:50;15.80;99.90
10083;DHT22;5080;48.528;8.078;2023-05-07T00:17:17;15.70;99.90
10083;DHT22;5080;48.528;8.078;2023-05-07T00:19:45;15.70;99.90
10083;DHT22;5080;48.528;8.078;2023-05-07T00:22:13;15.70;99.90
10083;DHT22;5080;48.528;8.078;2023-05-07T00:24:39;15.70;99.90
10083;DHT22;5080;48.528;8.078;2023-05-07T00:27:06;15.60;99.90
10083;DHT22;5080;48.528;8.078;2023-05-07T00:29:33;15.70;99.90
10083;DHT22;5080;48.528;8.078;2023-05-07T00:32:00;15.60;99.90
10083;DHT22;5080;48.528;8.078;2023-05-07T00:34:27;15.60;99.90
10083;DHT22;5080;48.528;8.078;2023-05-07T00:36:55;15.60;99.90
10083;DHT22;5080;48.528;8.078;2023-05-07T00:39:22;15.50;99.90
10083;DHT22;5080;48.528;8.078;2023-05-07T00:41:48;15.50;99.90
10083;DHT22;5080;48.528;8.078;2023-05-07T00:44:16;15.50;99.90
10083;DHT22;5080;48.528;8.078;2023-05-07T00:46:43;15.50;99.90
10083;DHT22;5080;48.528;8.078;2023-05-07T00:49:14;15.50;99.90
10083;DHT22;5080;48.528;8.078;2023-05-07T00:51:41;15.50;99.90
10083;DHT22;5080;48.528;8.078;2023-05-07T00:54:10;15.50;99.90
10083;DHT22;5080;48.528;8.078;2023-05-07T00:56:37;15.40;99.90
10083;DHT22;5080;48.528;8.078;2023-05-07T00:59:05;15.60;99.90
10083;DHT22;5080;48.528;8.078;2023-05-07T01:01:32;15.40;99.90
10083;DHT22;5080;48.528;8.078;2023-05-07T01:03:59;15.40;99.90
10083;DHT22;5080;48.528;8.078;2023-05-07T01:06:27;15.40;99.90
10083;DHT22;5080;48.528;8.078;2023-05-07T01:08:55;15.40;99.90
10083;DHT22;5080;48.528;8.078;2023-05-07T01:11:24;15.40;99.90
10083;DHT22;5080;48.528;8.078;2023-05-07T01:13:51;15.50;99.90
10083;DHT22;5080;48.528;8.078;2023-05-07T01:16:19;15.50;99.90
10083;DHT22;5080;48.528;8.078;2023-05-07T01:18:47;15.50;99.90
10083;DHT22;5080;48.528;8.078;2023-05-07T01:21:15;15.50;99.90
10083;DHT22;5080;48.528;8.078;2023-05-07T01:23:46;15.50;99.90
10083;DHT22;5080;48.528;8.078;2023-05-07T01:26:13;15.50;99.90
10083;DHT22;5080;48.528;8.078;2023-05-07T01:28:40;15.40;99.90
10083;DHT22;5080;48.528;8.078;2023-05-07T01:31:08;15.40;99.90
10083;DHT22;5080;48.528;8.078;2023-05-07T01:33:36;15.30;99.90
10083;DHT22;5080;48.528;8.078;2023-05-07T01:36:05;15.20;99.90
10083;DHT22;5080;48.528;8.078;2023-05-07T01:38:34;15.20;99.90
10083;DHT22;5080;48.528;8.078;2023-05-07T01:41:03;15.10;99.90
10083;DHT22;5080;48.528;8.078;2023-05-07T01:43:30;14.90;99.90
10083;DHT22;5080;48.528;8.078;2023-05-07T01:45:57;14.80;99.90
10083;DHT22;5080;48.528;8.078;2023-05-07T01:48:25;14.80;99.90
10083;DHT22;5080;48.528;8.078;2023-05-07T01:50:53;14.80;99.90
10083;DHT22;5080;48.528;8.078;2023-05-07T01:53:20;14.80;99.90
10083;DHT22;5080;48.528;8.078;2023-05-07T01:55:46;14.80;99.90
10083;DHT22;5080;48.528;8.078;2023-05-07T01:58:15;14.80;99.90
10083;DHT22;5080;48.528;8.078;2023-05-07T02:00:41;14.70;99.90
10083;DHT22;5080;48.528;8.078;2023-05-07T02:03:08;14.60;99.90
10083;DHT22;5080;48.528;8.078;2023-05-07T02:05:35;14.70;99.90
10083;DHT22;5080;48.528;8.078;2023-05-07T02:08:02;14.70;99.90
10083;DHT22;5080;48.528;8.078;2023-05-07T02:10:29;14.60;99.90
10083;DHT22;5080;48.528;8.078;2023-05-07T02:12:55;14.50;99.90
10083;DHT22;5080;48.528;8.078;2023-05-07T02:15:24;14.50;99.90
10083;DHT22;5080;48.528;8.078;2023-05-07T02:18:01;14.40;99.90
10083;DHT22;5080;48.528;8.078;2023-05-07T02:20:29;14.40;99.90
10083;DHT22;5080;48.528;8.078;2023-05-07T02:22:55;14.40;99.90
10083;DHT22;5080;48.528;8.078;2023-05-07T02:25:22;14.20;99.90
10083;DHT22;5080;48.528;8.078;2023-05-07T02:27:49;14.20;99.90
10083;DHT22;5080;48.528;8.078;2023-05-07T02:30:16;14.30;99.90
10083;DHT22;5080;48.528;8.078;2023-05-07T02:32:44;14.30;99.90
10083;DHT22;5080;48.528;8.078;2023-05-07T02:35:11;14.20;99.90
10083;DHT22;5080;48.528;8.078;2023-05-07T02:37:38;14.20;99.90
10083;DHT22;5080;48.528;8.078;2023-05-07T02:40:06;14.10;99.90
10083;DHT22;5080;48.528;8.078;2023-05-07T02:42:33;14.10;99.90
10083;DHT22;5080;48.528;8.078;2023-05-07T02:45:00;14.00;99.90
10083;DHT22;5080;48.528;8.078;2023-05-07T02:47:27;14.00;99.90
10083;DHT22;5080;48.528;8.078;2023-05-07T02:49:55;13.90;99.90
10083;DHT22;5080;48.528;8.078;2023-05-07T02:52:22;13.90;99.90
10083;DHT22;5080;48.528;8.078;2023-05-07T02:54:49;14.00;99.90
10083;DHT22;5080;48.528;8.078;2023-05-07T02:57:15;14.10;99.90
10083;DHT22;5080;48.528;8.078;2023-05-07T02:59:42;14.10;99.90
10083;DHT22;5080;48.528;8.078;2023-05-07T03:02:09;14.10;99.90
10083;DHT22;5080;48.528;8.078;2023-05-07T03:04:36;14.10;99.90
10083;DHT22;5080;48.528;8.078;2023-05-07T03:07:04;14.10;99.90
10083;DHT22;5080;48.528;8.078;2023-05-07T03:09:31;14.10;99.90
10083;DHT22;5080;48.528;8.078;2023-05-07T03:11:58;14.00;99.90
10083;DHT22;5080;48.528;8.078;2023-05-07T03:14:25;14.00;99.90
10083;DHT22;5080;48.528;8.078;2023-05-07T03:16:51;13.90;99.90
10083;DHT22;5080;48.528;8.078;2023-05-07T03:19:18;13.90;99.90
10083;DHT22;5080;48.528;8.078;2023-05-07T03:21:45;13.80;99.90
10083;DHT22;5080;48.528;8.078;2023-05-07T03:24:13;13.70;99.90
10083;DHT22;5080;48.528;8.078;2023-05-07T03:26:40;13.70;99.90
10083;DHT22;5080;48.528;8.078;2023-05-07T03:29:07;13.70;99.90
10083;DHT22;5080;48.528;8.078;2023-05-07T03:31:33;13.80;99.90
10083;DHT22;5080;48.528;8.078;2023-05-07T03:34:00;13.80;99.90
10083;DHT22;5080;48.528;8.078;2023-05-07T03:36:27;13.80;99.90
10083;DHT22;5080;48.528;8.078;2023-05-07T03:38:54;13.70;99.90
10083;DHT22;5080;48.528;8.078;2023-05-07T03:41:22;13.70;99.90
10083;DHT22;5080;48.528;8.078;2023-05-07T03:43:49;13.70;99.90
10083;DHT22;5080;48.528;8.078;2023-05-07T03:46:15;13.60;99.90
10083;DHT22;5080;48.528;8.078;2023-05-07T03:48:42;13.80;99.90
10083;DHT22;5080;48.528;8.078;2023-05-07T03:51:09;13.80;99.90
10083;DHT22;5080;48.528;8.078;2023-05-07T03:53:36;13.80;99.90
10083;DHT22;5080;48.528;8.078;2023-05-07T03:56:03;13.80;99.90
10083;DHT22;5080;48.528;8.078;2023-05-07T03:58:31;13.80;99.90
10083;DHT22;5080;48.528;8.078;2023-05-07T04:00:58;13.80;99.90
10083;DHT22;5080;48.528;8.078;2023-05-07T04:03:25;13.80;99.90
10083;DHT22;5080;48.528;8.078;2023-05-07T04:05:52;13.80;99.90
10083;DHT22;5080;48.528;8.078;2023-05-07T04:08:18;13.80;99.90
10083;DHT22;5080;48.528;8.078;2023-05-07T04:10:45;13.80;99.90
10083;DHT22;5080;48.528;8.078;2023-05-07T04:13:12;13.80;99.90
10083;DHT22;5080;48.528;8.078;2023-05-07T04:15:40;13.70;99.90
10083;DHT22;5080;48.528;8.078;2023-05-07T04:18:07;13.70;99.90
10083;DHT22;5080;48.528;8.078;2023-05-07T04:20:34;13.70;99.90
10083;DHT22;5080;48.528;8.078;2023-05-07T04:23:02;13.60;99.90
10083;DHT22;5080;48.528;8.078;2023-05-07T04:25:29;13.60;99.90
10083;DHT22;5080;48.528;8.078;2023-05-07T04:27:56;13.60;99.90
10083;DHT22;5080;48.528;8.078;2023-05-07T04:30:22;13.70;99.90
10083;DHT22;5080;48.528;8.078;2023-05-07T04:32:51;13.70;99.90
10083;DHT22;5080;48.528;8.078;2023-05-07T04:35:18;13.60;99.90
10083;DHT22;5080;48.528;8.078;2023-05-07T04:37:45;13.70;99.90
10083;DHT22;5080;48.528;8.078;2023-05-07T04:40:12;13.80;99.90
10083;DHT22;5080;48.528;8.078;2023-05-07T04:42:39;13.90;99.90
10083;DHT22;5080;48.528;8.078;2023-05-07T04:45:06;13.90;99.90
10083;DHT22;5080;48.528;8.078;2023-05-07T04:47:34;13.90;99.90
10083;DHT22;5080;48.528;8.078;2023-05-07T04:50:03;13.90;99.90
10083;DHT22;5080;48.528;8.078;2023-05-07T04:52:30;13.90;99.90
10083;DHT22;5080;48.528;8.078;2023-05-07T04:54:58;14.00;99.90
10083;DHT22;5080;48.528;8.078;2023-05-07T04:57:25;14.00;99.90
10083;DHT22;5080;48.528;8.078;2023-05-07T04:59:52;14.10;99.90
10083;DHT22;5080;48.528;8.078;2023-05-07T05:02:19;14.20;99.90
10083;DHT22;5080;48.528;8.078;2023-05-07T05:04:46;14.30;99.90
10083;DHT22;5080;48.528;8.078;2023-05-07T05:07:14;14.40;99.90
10083;DHT22;5080;48.528;8.078;2023-05-07T05:09:41;14.50;99.90
10083;DHT22;5080;48.528;8.078;2023-05-07T05:12:07;14.60;99.90
10083;DHT22;5080;48.528;8.078;2023-05-07T05:14:34;14.70;99.90
10083;DHT22;5080;48.528;8.078;2023-05-07T05:17:01;14.90;99.90
10083;DHT22;5080;48.528;8.078;2023-05-07T05:19:28;15.00;99.90
10083;DHT22;5080;48.528;8.078;2023-05-07T05:21:55;15.10;99.90
10083;DHT22;5080;48.528;8.078;2023-05-07T05:24:23;15.20;99.90
10083;DHT22;5080;48.528;8.078;2023-05-07T05:26:50;15.20;99.90
10083;DHT22;5080;48.528;8.078;2023-05-07T05:29:19;15.30;99.90
10083;DHT22;5080;48.528;8.078;2023-05-07T05:31:46;15.30;99.90
10083;DHT22;5080;48.528;8.078;2023-05-07T05:34:12;15.40;99.90
10083;DHT22;5080;48.528;8.078;2023-05-07T05:36:39;15.50;99.90
10083;DHT22;5080;48.528;8.078;2023-05-07T05:39:06;15.50;99.90
10083;DHT22;5080;48.528;8.078;2023-05-07T05:41:35;15.40;99.90
10083;DHT22;5080;48.528;8.078;2023-05-07T05:44:02;15.80;99.90
10083;DHT22;5080;48.528;8.078;2023-05-07T05:46:30;15.80;99.90
10083;DHT22;5080;48.528;8.078;2023-05-07T05:48:57;16.00;99.90
10083;DHT22;5080;48.528;8.078;2023-05-07T05:51:23;16.10;99.90
10083;DHT22;5080;48.528;8.078;2023-05-07T05:53:50;16.30;99.90
10083;DHT22;5080;48.528;8.078;2023-05-07T05:56:17;16.30;99.90
10083;DHT22;5080;48.528;8.078;2023-05-07T05:58:46;16.40;99.90
10083;DHT22;5080;48.528;8.078;2023-05-07T06:01:13;16.60;99.90
10083;DHT22;5080;48.528;8.078;2023-05-07T06:03:40;16.70;99.90
10083;DHT22;5080;48.528;8.078;2023-05-07T06:06:06;16.80;99.90
10083;DHT22;5080;48.528;8.078;2023-05-07T06:08:33;16.80;99.90
10083;DHT22;5080;48.528;8.078;2023-05-07T06:11:01;16.90;99.90
10083;DHT22;5080;48.528;8.078;2023-05-07T06:13:28;17.00;99.90
10083;DHT22;5080;48.528;8.078;2023-05-07T06:15:56;17.00;99.90
10083;DHT22;5080;48.528;8.078;2023-05-07T06:18:24;17.10;99.90
10083;DHT22;5080;48.528;8.078;2023-05-07T06:20:52;17.00;99.90
10083;DHT22;5080;48.528;8.078;2023-05-07T06:23:18;16.90;99.90
10083;DHT22;5080;48.528;8.078;2023-05-07T06:25:49;16.90;99.90
10083;DHT22;5080;48.528;8.078;2023-05-07T06:28:16;16.90;99.90
10083;DHT22;5080;48.528;8.078;2023-05-07T06:30:42;16.80;99.90
10083;DHT22;5080;48.528;8.078;2023-05-07T06:33:11;16.80;99.90
10083;DHT22;5080;48.528;8.078;2023-05-07T06:35:37;16.90;99.90
10083;DHT22;5080;48.528;8.078;2023-05-07T06:38:04;16.90;99.90
10083;DHT22;5080;48.528;8.078;2023-05-07T06:40:31;16.90;99.90
10083;DHT22;5080;48.528;8.078;2023-05-07T06:42:58;17.00;99.90
10083;DHT22;5080;48.528;8.078;2023-05-07T06:45:25;17.10;99.90
10083;DHT22;5080;48.528;8.078;2023-05-07T06:47:52;17.20;99.90
10083;DHT22;5080;48.528;8.078;2023-05-07T06:50:20;17.20;99.90
10083;DHT22;5080;48.528;8.078;2023-05-07T06:52:47;17.40;99.90
10083;DHT22;5080;48.528;8.078;2023-05-07T06:55:14;17.40;99.90
10083;DHT22;5080;48.528;8.078;2023-05-07T06:57:41;17.40;99.90
10083;DHT22;5080;48.528;8.078;2023-05-07T07:00:08;17.30;99.90
10083;DHT22;5080;48.528;8.078;2023-05-07T07:02:36;17.30;99.90
10083;DHT22;5080;48.528;8.078;2023-05-07T07:05:03;17.30;99.90
10083;DHT22;5080;48.528;8.078;2023-05-07T07:07:32;17.20;99.90
10083;DHT22;5080;48.528;8.078;2023-05-07T07:09:58;17.20;99.90
10083;DHT22;5080;48.528;8.078;2023-05-07T07:12:25;17.00;99.90
10083;DHT22;5080;48.528;8.078;2023-05-07T07:14:52;17.00;99.90
10083;DHT22;5080;48.528;8.078;2023-05-07T07:17:19;17.20;99.90
10083;DHT22;5080;48.528;8.078;2023-05-07T07:19:46;17.40;99.90
10083;DHT22;5080;48.528;8.078;2023-05-07T07:22:13;17.50;99.90
10083;DHT22;5080;48.528;8.078;2023-05-07T07:24:41;17.60;99.90
10083;DHT22;5080;48.528;8.078;2023-05-07T07:27:07;17.60;99.90
10083;DHT22;5080;48.528;8.078;2023-05-07T07:29:34;17.70;99.90
10083;DHT22;5080;48.528;8.078;2023-05-07T07:32:01;17.60;99.90
10083;DHT22;5080;48.528;8.078;2023-05-07T07:34:28;17.60;99.90
10083;DHT22;5080;48.528;8.078;2023-05-07T07:36:55;17.70;99.90
10083;DHT22;5080;48.528;8.078;2023-05-07T07:39:22;17.60;99.90
10083;DHT22;5080;48.528;8.078;2023-05-07T07:41:50;17.90;99.90
10083;DHT22;5080;48.528;8.078;2023-05-07T07:44:17;18.30;99.90
10083;DHT22;5080;48.528;8.078;2023-05-07T07:46:44;18.60;99.90
10083;DHT22;5080;48.528;8.078;2023-05-07T07:49:11;18.50;99.90
10083;DHT22;5080;48.528;8.078;2023-05-07T07:51:38;18.60;99.90
10083;DHT22;5080;48.528;8.078;2023-05-07T07:54:04;18.70;99.90
10083;DHT22;5080;48.528;8.078;2023-05-07T07:56:32;19.00;99.90
10083;DHT22;5080;48.528;8.078;2023-05-07T07:59:01;19.00;99.90
10083;DHT22;5080;48.528;8.078;2023-05-07T08:01:30;19.10;99.90
10083;DHT22;5080;48.528;8.078;2023-05-07T08:03:56;19.30;99.90
10083;DHT22;5080;48.528;8.078;2023-05-07T08:06:24;19.10;99.90
10083;DHT22;5080;48.528;8.078;2023-05-07T08:08:51;19.20;99.90
10083;DHT22;5080;48.528;8.078;2023-05-07T08:11:18;19.10;99.90
10083;DHT22;5080;48.528;8.078;2023-05-07T08:13:46;19.50;99.90
10083;DHT22;5080;48.528;8.078;2023-05-07T08:16:14;19.80;99.90
10083;DHT22;5080;48.528;8.078;2023-05-07T08:18:41;20.10;99.90
10083;DHT22;5080;48.528;8.078;2023-05-07T08:21:08;20.20;99.90
10083;DHT22;5080;48.528;8.078;2023-05-07T08:23:35;20.20;99.90
10083;DHT22;5080;48.528;8.078;2023-05-07T08:26:02;20.40;99.90
10083;DHT22;5080;48.528;8.078;2023-05-07T08:28:28;20.50;99.90
10083;DHT22;5080;48.528;8.078;2023-05-07T08:30:55;20.40;99.90
10083;DHT22;5080;48.528;8.078;2023-05-07T08:33:26;20.20;99.90
10083;DHT22;5080;48.528;8.078;2023-05-07T08:35:53;20.30;99.90
10083;DHT22;5080;48.528;8.078;2023-05-07T08:38:20;20.30;99.90
10083;DHT22;5080;48.528;8.078;2023-05-07T08:40:47;20.40;99.90
10083;DHT22;5080;48.528;8.078;2023-05-07T08:43:14;20.60;99.90
10083;DHT22;5080;48.528;8.078;2023-05-07T08:45:41;20.80;99.90
10083;DHT22;5080;48.528;8.078;2023-05-07T08:48:10;20.90;99.90
10083;DHT22;5080;48.528;8.078;2023-05-07T08:50:42;21.10;99.90
10083;DHT22;5080;48.528;8.078;2023-05-07T08:53:09;21.30;99.90
10083;DHT22;5080;48.528;8.078;2023-05-07T08:55:35;21.30;99.90
10083;DHT22;5080;48.528;8.078;2023-05-07T08:58:03;21.20;99.90
10083;DHT22;5080;48.528;8.078;2023-05-07T09:00:30;21.20;99.90
10083;DHT22;5080;48.528;8.078;2023-05-07T09:02:56;21.20;99.90
10083;DHT22;5080;48.528;8.078;2023-05-07T09:05:23;21.40;99.90
10083;DHT22;5080;48.528;8.078;2023-05-07T09:07:51;21.40;99.90
10083;DHT22;5080;48.528;8.078;2023-05-07T09:10:19;21.50;99.90
10083;DHT22;5080;48.528;8.078;2023-05-07T09:12:46;21.60;99.90
10083;DHT22;5080;48.528;8.078;2023-05-07T09:15:13;21.60;99.90
10083;DHT22;5080;48.528;8.078;2023-05-07T09:17:41;21.60;99.90
10083;DHT22;5080;48.528;8.078;2023-05-07T09:20:09;21.70;99.90
10083;DHT22;5080;48.528;8.078;2023-05-07T09:22:36;21.60;99.90
10083;DHT22;5080;48.528;8.078;2023-05-07T09:25:06;21.60;99.90
10083;DHT22;5080;48.528;8.078;2023-05-07T09:27:33;21.70;99.90
10083;DHT22;5080;48.528;8.078;2023-05-07T09:30:03;21.80;99.90
10083;DHT22;5080;48.528;8.078;2023-05-07T09:32:34;21.90;99.90
10083;DHT22;5080;48.528;8.078;2023-05-07T09:35:01;21.90;99.90
10083;DHT22;5080;48.528;8.078;2023-05-07T09:37:31;22.10;99.90
10083;DHT22;5080;48.528;8.078;2023-05-07T09:39:58;22.20;99.90
10083;DHT22;5080;48.528;8.078;2023-05-07T09:42:26;22.20;99.90
10083;DHT22;5080;48.528;8.078;2023-05-07T09:44:53;22.30;99.90
10083;DHT22;5080;48.528;8.078;2023-05-07T09:47:20;22.20;99.90
10083;DHT22;5080;48.528;8.078;2023-05-07T09:49:50;22.20;99.90
10083;DHT22;5080;48.528;8.078;2023-05-07T09:52:21;22.10;99.90
10083;DHT22;5080;48.528;8.078;2023-05-07T09:54:48;22.40;99.90
10083;DHT22;5080;48.528;8.078;2023-05-07T09:57:17;22.50;99.90
10083;DHT22;5080;48.528;8.078;2023-05-07T09:59:47;22.60;99.90
10083;DHT22;5080;48.528;8.078;2023-05-07T10:02:17;22.60;99.90
10083;DHT22;5080;48.528;8.078;2023-05-07T10:04:45;22.70;99.90
10083;DHT22;5080;48.528;8.078;2023-05-07T10:07:13;22.60;99.90
10083;DHT22;5080;48.528;8.078;2023-05-07T10:09:40;22.40;99.90
10083;DHT22;5080;48.528;8.078;2023-05-07T10:12:09;22.60;99.90
10083;DHT22;5080;48.528;8.078;2023-05-07T10:14:36;22.80;99.90
10083;DHT22;5080;48.528;8.078;2023-05-07T10:17:06;22.90;99.90
10083;DHT22;5080;48.528;8.078;2023-05-07T10:19:34;22.80;99.90
10083;DHT22;5080;48.528;8.078;2023-05-07T10:22:05;22.90;99.90
10083;DHT22;5080;48.528;8.078;2023-05-07T10:24:33;23.10;99.90
10083;DHT22;5080;48.528;8.078;2023-05-07T10:27:02;23.20;99.90
10083;DHT22;5080;48.528;8.078;2023-05-07T10:29:39;23.10;99.90
10083;DHT22;5080;48.528;8.078;2023-05-07T10:32:25;23.30;99.90
10083;DHT22;5080;48.528;8.078;2023-05-07T10:34:54;23.50;99.90
10083;DHT22;5080;48.528;8.078;2023-05-07T10:37:23;23.40;99.90
10083;DHT22;5080;48.528;8.078;2023-05-07T10:39:52;23.50;99.90
10083;DHT22;5080;48.528;8.078;2023-05-07T10:42:19;23.70;99.90
10083;DHT22;5080;48.528;8.078;2023-05-07T10:44:46;23.60;99.90
10083;DHT22;5080;48.528;8.078;2023-05-07T10:47:16;23.60;99.90
10083;DHT22;5080;48.528;8.078;2023-05-07T10:53:20;23.60;99.90
10083;DHT22;5080;48.528;8.078;2023-05-07T10:55:51;23.60;99.90
10083;DHT22;5080;48.528;8.078;2023-05-07T10:58:24;23.70;99.90
10083;DHT22;5080;48.528;8.078;2023-05-07T11:00:56;23.90;99.90
10083;DHT22;5080;48.528;8.078;2023-05-07T11:03:25;23.90;99.90
10083;DHT22;5080;48.528;8.078;2023-05-07T11:06:09;24.10;99.90
10083;DHT22;5080;48.528;8.078;2023-05-07T11:08:53;24.10;99.90
10083;DHT22;5080;48.528;8.078;2023-05-07T11:11:20;24.20;99.90
10083;DHT22;5080;48.528;8.078;2023-05-07T11:14:08;24.20;99.90
10083;DHT22;5080;48.528;8.078;2023-05-07T11:16:35;24.20;99.90
10083;DHT22;5080;48.528;8.078;2023-05-07T11:19:04;24.20;99.90
10083;DHT22;5080;48.528;8.078;2023-05-07T11:21:32;24.20;99.90
10083;DHT22;5080;48.528;8.078;2023-05-07T11:24:00;24.30;99.90
10083;DHT22;5080;48.528;8.078;2023-05-07T11:26:29;24.30;99.90
10083;DHT22;5080;48.528;8.078;2023-05-07T11:28:57;24.10;99.90
10083;DHT22;5080;48.528;8.078;2023-05-07T11:31:26;24.10;99.90
10083;DHT22;5080;48.528;8.078;2023-05-07T11:33:55;24.20;99.90
10083;DHT22;5080;48.528;8.078;2023-05-07T11:36:24;24.20;99.90
10083;DHT22;5080;48.528;8.078;2023-05-07T11:38:51;24.20;99.90
10083;DHT22;5080;48.528;8.078;2023-05-07T11:41:18;24.10;99.90
10083;DHT22;5080;48.528;8.078;2023-05-07T11:43:59;24.00;99.90
10083;DHT22;5080;48.528;8.078;2023-05-07T11:46:27;24.00;99.90
10083;DHT22;5080;48.528;8.078;2023-05-07T11:48:54;24.10;99.90
10083;DHT22;5080;48.528;8.078;2023-05-07T11:51:23;24.20;99.90
10083;DHT22;5080;48.528;8.078;2023-05-07T11:53:51;24.10;99.90
10083;DHT22;5080;48.528;8.078;2023-05-07T11:56:19;24.00;99.90
10083;DHT22;5080;48.528;8.078;2023-05-07T11:58:47;24.00;99.90
10083;DHT22;5080;48.528;8.078;2023-05-07T12:01:14;24.00;99.90
10083;DHT22;5080;48.528;8.078;2023-05-07T12:03:43;24.10;99.90
10083;DHT22;5080;48.528;8.078;2023-05-07T12:06:12;24.00;99.90
10083;DHT22;5080;48.528;8.078;2023-05-07T12:08:41;24.10;99.90
10083;DHT22;5080;48.528;8.078;2023-05-07T12:11:09;24.30;99.90
10083;DHT22;5080;48.528;8.078;2023-05-07T12:13:36;24.40;99.90
10083;DHT22;5080;48.528;8.078;2023-05-07T12:16:05;24.40;99.90
10083;DHT22;5080;48.528;8.078;2023-05-07T12:18:33;24.40;99.90
10083;DHT22;5080;48.528;8.078;2023-05-07T12:21:00;24.40;99.90
10083;DHT22;5080;48.528;8.078;2023-05-07T12:23:28;24.20;99.90
10083;DHT22;5080;48.528;8.078;2023-05-07T12:25:57;24.30;99.90
10083;DHT22;5080;48.528;8.078;2023-05-07T12:28:23;24.40;99.90
10083;DHT22;5080;48.528;8.078;2023-05-07T12:30:51;24.40;99.90
10083;DHT22;5080;48.528;8.078;2023-05-07T12:33:23;24.30;99.90
10083;DHT22;5080;48.528;8.078;2023-05-07T12:35:50;24.20;99.90
10083;DHT22;5080;48.528;8.078;2023-05-07T12:38:18;24.10;99.90
10083;DHT22;5080;48.528;8.078;2023-05-07T12:40:45;24.10;99.90
10083;DHT22;5080;48.528;8.078;2023-05-07T12:43:18;24.10;99.90
10083;DHT22;5080;48.528;8.078;2023-05-07T12:45:45;24.00;99.90
10083;DHT22;5080;48.528;8.078;2023-05-07T12:48:13;24.00;99.90
10083;DHT22;5080;48.528;8.078;2023-05-07T12:50:40;23.90;99.90
10083;DHT22;5080;48.528;8.078;2023-05-07T12:53:08;23.80;99.90
10083;DHT22;5080;48.528;8.078;2023-05-07T12:55:43;23.60;99.90
10083;DHT22;5080;48.528;8.078;2023-05-07T12:58:20;23.60;99.90
10083;DHT22;5080;48.528;8.078;2023-05-07T13:00:48;23.40;99.90
10083;DHT22;5080;48.528;8.078;2023-05-07T13:03:21;23.20;99.90
10083;DHT22;5080;48.528;8.078;2023-05-07T13:05:49;23.20;99.90
10083;DHT22;5080;48.528;8.078;2023-05-07T13:08:26;23.10;99.90
10083;DHT22;5080;48.528;8.078;2023-05-07T13:10:53;23.20;99.90
10083;DHT22;5080;48.528;8.078;2023-05-07T13:13:22;23.10;99.90
10083;DHT22;5080;48.528;8.078;2023-05-07T13:15:48;23.20;99.90
10083;DHT22;5080;48.528;8.078;2023-05-07T13:18:15;23.10;99.90
10083;DHT22;5080;48.528;8.078;2023-05-07T13:20:42;23.20;99.90
10083;DHT22;5080;48.528;8.078;2023-05-07T13:23:09;23.10;99.90
10083;DHT22;5080;48.528;8.078;2023-05-07T13:25:36;23.00;99.90
10083;DHT22;5080;48.528;8.078;2023-05-07T13:28:03;23.20;99.90
10083;DHT22;5080;48.528;8.078;2023-05-07T13:30:31;23.10;99.90
10083;DHT22;5080;48.528;8.078;2023-05-07T13:32:58;23.10;99.90
10083;DHT22;5080;48.528;8.078;2023-05-07T13:35:25;23.10;99.90
10083;DHT22;5080;48.528;8.078;2023-05-07T13:37:52;23.20;99.90
10083;DHT22;5080;48.528;8.078;2023-05-07T13:40:20;23.20;99.90
10083;DHT22;5080;48.528;8.078;2023-05-07T13:42:47;23.10;99.90
10083;DHT22;5080;48.528;8.078;2023-05-07T13:45:14;23.10;99.90
10083;DHT22;5080;48.528;8.078;2023-05-07T13:47:42;23.00;99.90
10083;DHT22;5080;48.528;8.078;2023-05-07T13:50:09;22.80;99.90
10083;DHT22;5080;48.528;8.078;2023-05-07T13:52:39;22.70;99.90
10083;DHT22;5080;48.528;8.078;2023-05-07T13:55:07;22.60;99.90
10083;DHT22;5080;48.528;8.078;2023-05-07T13:57:33;22.50;99.90
10083;DHT22;5080;48.528;8.078;2023-05-07T14:00:00;22.40;99.90
10083;DHT22;5080;48.528;8.078;2023-05-07T14:02:27;22.40;99.90
10083;DHT22;5080;48.528;8.078;2023-05-07T14:04:55;22.40;99.90
10083;DHT22;5080;48.528;8.078;2023-05-07T14:07:22;22.50;99.90
10083;DHT22;5080;48.528;8.078;2023-05-07T14:09:49;22.60;99.90
10083;DHT22;5080;48.528;8.078;2023-05-07T14:12:16;22.80;99.90
10083;DHT22;5080;48.528;8.078;2023-05-07T14:14:43;23.10;99.90
10083;DHT22;5080;48.528;8.078;2023-05-07T14:17:10;23.50;99.90
10083;DHT22;5080;48.528;8.078;2023-05-07T14:19:37;23.80;99.90
10083;DHT22;5080;48.528;8.078;2023-05-07T14:22:05;24.10;99.90
10083;DHT22;5080;48.528;8.078;2023-05-07T14:24:32;24.40;99.90
10083;DHT22;5080;48.528;8.078;2023-05-07T14:26:59;24.60;99.90
10083;DHT22;5080;48.528;8.078;2023-05-07T14:29:27;24.60;99.90
10083;DHT22;5080;48.528;8.078;2023-05-07T14:31:53;24.80;99.90
10083;DHT22;5080;48.528;8.078;2023-05-07T14:34:20;24.90;99.90
10083;DHT22;5080;48.528;8.078;2023-05-07T14:36:47;24.80;99.90
10083;DHT22;5080;48.528;8.078;2023-05-07T14:39:16;24.80;99.90
10083;DHT22;5080;48.528;8.078;2023-05-07T14:41:42;24.90;99.90
10083;DHT22;5080;48.528;8.078;2023-05-07T14:44:09;24.80;99.90
10083;DHT22;5080;48.528;8.078;2023-05-07T14:46:36;24.50;99.90
10083;DHT22;5080;48.528;8.078;2023-05-07T14:49:03;24.30;99.90
10083;DHT22;5080;48.528;8.078;2023-05-07T14:51:31;24.00;99.90
10083;DHT22;5080;48.528;8.078;2023-05-07T14:53:58;23.90;99.90
10083;DHT22;5080;48.528;8.078;2023-05-07T14:56:27;23.90;99.90
10083;DHT22;5080;48.528;8.078;2023-05-07T14:58:54;23.80;99.90
10083;DHT22;5080;48.528;8.078;2023-05-07T15:01:21;23.60;99.90
10083;DHT22;5080;48.528;8.078;2023-05-07T15:03:48;23.60;99.90
10083;DHT22;5080;48.528;8.078;2023-05-07T15:06:15;23.60;99.90
10083;DHT22;5080;48.528;8.078;2023-05-07T15:08:42;23.50;99.90
10083;DHT22;5080;48.528;8.078;2023-05-07T15:11:09;23.60;99.90
10083;DHT22;5080;48.528;8.078;2023-05-07T15:13:37;23.50;99.90
10083;DHT22;5080;48.528;8.078;2023-05-07T15:16:07;23.50;99.90
10083;DHT22;5080;48.528;8.078;2023-05-07T15:18:34;23.40;99.90
10083;DHT22;5080;48.528;8.078;2023-05-07T15:21:01;23.50;99.90
10083;DHT22;5080;48.528;8.078;2023-05-07T15:23:28;23.40;99.90
10083;DHT22;5080;48.528;8.078;2023-05-07T15:25:55;23.30;99.90
10083;DHT22;5080;48.528;8.078;2023-05-07T15:28:22;23.20;99.90
10083;DHT22;5080;48.528;8.078;2023-05-07T15:30:51;23.00;99.90
10083;DHT22;5080;48.528;8.078;2023-05-07T15:33:18;23.10;99.90
10083;DHT22;5080;48.528;8.078;2023-05-07T15:35:45;23.10;99.90
10083;DHT22;5080;48.528;8.078;2023-05-07T15:38:11;23.00;99.90
10083;DHT22;5080;48.528;8.078;2023-05-07T15:40:39;22.90;99.90
10083;DHT22;5080;48.528;8.078;2023-05-07T15:43:08;22.90;99.90
10083;DHT22;5080;48.528;8.078;2023-05-07T15:45:38;22.80;99.90
10083;DHT22;5080;48.528;8.078;2023-05-07T15:48:07;22.70;99.90
10083;DHT22;5080;48.528;8.078;2023-05-07T15:50:34;22.50;99.90